Crinis — A8ZS6 — position and weather

sailwx.info

Track history (hours):
 
Tides and Currents Weather Stations Pressure Air Temp Water Temp Dewpoint Dewpoint Depression Visibility Wind Speed Wind Dir Waves Ship Positions

Crinis

Last reported at 2018-Jan-20 03:25 UTC. Time now 2018-Jan-20 17:18 UTC.
Position N 44°05' E 030°14'.

Length 169 m; draft 10.2 m.

Type: Ship. MMSI: 636015289.

Date/timePositionNaut miles runAvg speedWind from/ knotsBaromVisibWave heightAir tempDewpointWater temp
2018-Jan-20 03:25N 44°05' E 030°14'512.7
2018-Jan-20 03:00N 44°10' E 030°16'612.8
2018-Jan-20 02:30N 44°17' E 030°19'712.8
2018-Jan-20 02:00N 44°23' E 030°21'612.9
2018-Jan-20 01:30N 44°29' E 030°24'612.9
2018-Jan-20 01:00N 44°35' E 030°27'712.9
2018-Jan-20 00:30N 44°41' E 030°29'8313.1
2018-Jan-19 18:13N 46°00' E 031°02'313.4
2018-Jan-19 18:00N 46°03' E 031°03'1411.9
2018-Jan-19 16:50N 46°16' E 030°54'412.8
2018-Jan-19 16:30N 46°20' E 030°55'713.2
2018-Jan-19 16:00N 46°26' E 030°55'611.9
2018-Jan-19 15:30N 46°32' E 030°56'4 7.1
2018-Jan-19 15:00N 46°34' E 031°00'3 6.9
2018-Jan-19 14:30N 46°37' E 031°01'1 0.2
2018-Jan-19 10:51N 46°38' E 031°01'0 0.0
2018-Jan-19 10:27N 46°38' E 031°01'0 0.0
2018-Jan-19 09:57N 46°38' E 031°01'0 0.0
2018-Jan-19 09:21N 46°38' E 031°01'0 0.0
2018-Jan-19 08:09N 46°38' E 031°01'0 0.0
2018-Jan-19 07:51N 46°38' E 031°01'0 0.0
2018-Jan-19 06:09N 46°38' E 031°01'0 0.0
2018-Jan-18 18:27N 46°38' E 031°01'0 0.0
2018-Jan-18 17:51N 46°38' E 031°01'  
2018-Jan-11 07:23N 38°01' E 024°38'512.7
2018-Jan-11 06:59N 37°56' E 024°36'612.3
2018-Jan-11 06:30N 37°50' E 024°33'612.7
2018-Jan-11 06:00N 37°45' E 024°29'612.7
2018-Jan-11 05:31N 37°39' E 024°26'612.6
2018-Jan-11 05:00N 37°33' E 024°23'612.6
2018-Jan-11 04:30N 37°28' E 024°18'613.0
2018-Jan-11 04:00N 37°23' E 024°12'612.9
2018-Jan-11 03:30N 37°18' E 024°07'612.8
2018-Jan-11 03:00N 37°13' E 024°02'612.7
2018-Jan-11 02:30N 37°08' E 023°57'612.5
2018-Jan-11 02:00N 37°04' E 023°52'612.6
2018-Jan-11 01:30N 36°59' E 023°47'613.0
2018-Jan-11 01:00N 36°54' E 023°42'612.7
2018-Jan-11 00:30N 36°49' E 023°37'1312.6
2018-Jan-10 23:28N 36°39' E 023°26'2711.7
2018-Jan-10 21:07N 36°25' E 022°57'213.0
2018-Jan-10 20:58N 36°25' E 022°54'1012.7
2018-Jan-10 20:10N 36°23' E 022°42'212.1
2018-Jan-10 19:58N 36°23' E 022°39'611.8
2018-Jan-10 19:26N 36°22' E 022°31'511.8
2018-Jan-10 18:59N 36°22' E 022°25'  
Track history (hours):
 
Tides and Currents Weather Stations Pressure Air Temp Water Temp Dewpoint Dewpoint Depression Visibility Wind Speed Wind Dir Waves Ship Positions

Crinis

Last reported at 2018-Jan-20 03:25 UTC. Time now 2018-Jan-20 17:18 UTC.
Position N 44°05' E 030°14'.

Length 169 m; draft 10.2 m.

Type: Ship. MMSI: 636015289.

Date/timePositionNaut miles runAvg speedWind from/ knotsBaromVisibWave heightAir tempDewpointWater temp
2018-Jan-20 03:25N 44°05' E 030°14'512.7
2018-Jan-20 03:00N 44°10' E 030°16'612.8
2018-Jan-20 02:30N 44°17' E 030°19'712.8
2018-Jan-20 02:00N 44°23' E 030°21'612.9
2018-Jan-20 01:30N 44°29' E 030°24'612.9
2018-Jan-20 01:00N 44°35' E 030°27'712.9
2018-Jan-20 00:30N 44°41' E 030°29'8313.1
2018-Jan-19 18:13N 46°00' E 031°02'313.4
2018-Jan-19 18:00N 46°03' E 031°03'1411.9
2018-Jan-19 16:50N 46°16' E 030°54'412.8
2018-Jan-19 16:30N 46°20' E 030°55'713.2
2018-Jan-19 16:00N 46°26' E 030°55'611.9
2018-Jan-19 15:30N 46°32' E 030°56'4 7.1
2018-Jan-19 15:00N 46°34' E 031°00'3 6.9
2018-Jan-19 14:30N 46°37' E 031°01'1 0.2
2018-Jan-19 10:51N 46°38' E 031°01'0 0.0
2018-Jan-19 10:27N 46°38' E 031°01'0 0.0
2018-Jan-19 09:57N 46°38' E 031°01'0 0.0
2018-Jan-19 09:21N 46°38' E 031°01'0 0.0
2018-Jan-19 08:09N 46°38' E 031°01'0 0.0
2018-Jan-19 07:51N 46°38' E 031°01'0 0.0
2018-Jan-19 06:09N 46°38' E 031°01'0 0.0
2018-Jan-18 18:27N 46°38' E 031°01'0 0.0
2018-Jan-18 17:51N 46°38' E 031°01'  
2018-Jan-11 07:23N 38°01' E 024°38'512.7
2018-Jan-11 06:59N 37°56' E 024°36'612.3
2018-Jan-11 06:30N 37°50' E 024°33'612.7
2018-Jan-11 06:00N 37°45' E 024°29'612.7
2018-Jan-11 05:31N 37°39' E 024°26'612.6
2018-Jan-11 05:00N 37°33' E 024°23'612.6
2018-Jan-11 04:30N 37°28' E 024°18'613.0
2018-Jan-11 04:00N 37°23' E 024°12'612.9
2018-Jan-11 03:30N 37°18' E 024°07'612.8
2018-Jan-11 03:00N 37°13' E 024°02'612.7
2018-Jan-11 02:30N 37°08' E 023°57'612.5
2018-Jan-11 02:00N 37°04' E 023°52'612.6
2018-Jan-11 01:30N 36°59' E 023°47'613.0
2018-Jan-11 01:00N 36°54' E 023°42'612.7
2018-Jan-11 00:30N 36°49' E 023°37'1312.6
2018-Jan-10 23:28N 36°39' E 023°26'2711.7
2018-Jan-10 21:07N 36°25' E 022°57'213.0
2018-Jan-10 20:58N 36°25' E 022°54'1012.7
2018-Jan-10 20:10N 36°23' E 022°42'212.1
2018-Jan-10 19:58N 36°23' E 022°39'611.8
2018-Jan-10 19:26N 36°22' E 022°31'511.8
2018-Jan-10 18:59N 36°22' E 022°25'  

Dump ship's entire track history